VMMC/MFM METAR and TAF weather

Enter ICAO airport designator
Station Type Date Time Source
VMMC METAR 2020/04/09 11:00 UTC NOAA

VMMC 091100Z 15007KT CAVOK 21/16 Q1016 NOSIG


Station Type Date Time Source
VMMC Decoded METAR 2020/04/09 11:00 UTC NOAA

Taipa, Macau (VMMC) 22-10N 113-34E
Apr 09, 2020 - 07:00 AM EDT / 2020.04.09 1100 UTC
Wind: from the SSE (150 degrees) at 8 MPH (7 KT):0
Visibility: greater than 7 mile(s):0
Temperature: 69 F (21 C)
Dew Point: 60 F (16 C)
Relative Humidity: 73%
Pressure (altimeter): 30.00 in. Hg (1016 hPa)
ob: VMMC 091100Z 15007KT CAVOK 21/16 Q1016 NOSIG
cycle: 11

Station Type Date Time Source
VMMC TAF 2020/04/09 12:21 UTC NOAA

TAF VMMC 091100Z 0912/1018 11008KT 9999 FEW040

Example: see airport list